Time;durP1;ratioP1;P1;durP2;ratioP2;P2;SDS_P1;SDS_P2;PMS_P1;PMS_P2;Temp;Humidity;BMP_temperature;BMP_pressure;BME280_temperature;BME280_humidity;BME280_pressure;Samples;Min_cycle;Max_cycle;Signal;HPM_P1;HPM_P2
2021/06/24 00:01:13;;;;;;;29.88;8.82;;;;;;;20.84;84.25;95355.91;5065399;28;20116;-74
2021/06/24 00:03:41;;;;;;;35.92;10.55;;;;;;;20.84;85.18;95355.13;5065433;28;20131;-74
2021/06/24 00:06:08;;;;;;;32.58;8.80;;;;;;;20.78;85.40;95357.81;5065236;28;20064;-74
2021/06/24 00:08:35;;;;;;;32.92;9.90;;;;;;;20.76;85.41;95362.59;5064431;28;20148;-74
2021/06/24 00:11:04;;;;;;;30.55;10.48;;;;;;;20.77;85.51;95360.75;5065099;28;20407;-74
2021/06/24 00:13:31;;;;;;;29.15;9.07;;;;;;;20.67;85.85;95360.84;5064323;28;20044;-74
2021/06/24 00:15:58;;;;;;;31.70;10.55;;;;;;;20.60;86.96;95355.88;5064493;28;20575;-74
2021/06/24 00:18:26;;;;;;;42.00;11.65;;;;;;;20.60;86.71;95358.53;5064173;28;20123;-74
2021/06/24 00:20:53;;;;;;;28.98;10.35;;;;;;;20.63;86.99;95350.03;5064826;28;20040;-74
2021/06/24 00:23:19;;;;;;;34.72;10.50;;;;;;;20.63;86.98;95360.63;5065048;28;20036;-76
2021/06/24 00:25:47;;;;;;;34.30;10.70;;;;;;;20.62;86.31;95364.34;5065027;28;20040;-75
2021/06/24 00:28:15;;;;;;;31.67;10.07;;;;;;;20.61;85.87;95362.75;5064994;28;20036;-75
2021/06/24 00:30:44;;;;;;;30.92;9.85;;;;;;;20.63;86.42;95365.91;5065332;28;20045;-75
2021/06/24 00:33:11;;;;;;;44.08;9.68;;;;;;;20.57;87.02;95377.59;5063468;28;20876;-74
2021/06/24 00:35:38;;;;;;;35.15;11.13;;;;;;;20.48;87.69;95371.34;5066014;28;20040;-75
2021/06/24 00:38:06;;;;;;;29.90;8.85;;;;;;;20.11;87.26;95370.09;5065276;28;20054;-76
2021/06/24 00:40:36;;;;;;;33.42;9.15;;;;;;;20.04;87.92;95362.47;5063066;28;20057;-75
2021/06/24 00:43:09;;;;;;;34.08;9.60;;;;;;;20.11;87.59;95372.75;5063730;28;20043;-75
2021/06/24 00:45:38;;;;;;;45.78;10.80;;;;;;;20.12;87.44;95361.09;5065511;28;20101;-76
2021/06/24 00:48:06;;;;;;;36.90;10.20;;;;;;;20.15;86.93;95368.47;5063517;28;20049;-75
2021/06/24 00:50:35;;;;;;;35.97;10.23;;;;;;;20.17;87.01;95382.22;5063763;28;20048;-76
2021/06/24 00:53:03;;;;;;;32.10;9.20;;;;;;;20.12;86.69;95384.91;5064420;28;20059;-76
2021/06/24 00:55:44;;;;;;;43.63;10.85;;;;;;;20.15;86.70;95386.97;5065047;28;20504;-75
2021/06/24 00:58:16;;;;;;;30.05;9.98;;;;;;;20.19;86.85;95382.72;5062726;28;20071;-76
2021/06/24 01:00:47;;;;;;;43.35;11.25;;;;;;;20.26;86.37;95380.56;5065001;28;20043;-75
2021/06/24 01:03:15;;;;;;;39.90;10.60;;;;;;;20.23;86.01;95362.59;5063742;28;20036;-76
2021/06/24 01:05:45;;;;;;;37.85;10.15;;;;;;;20.22;87.41;95368.94;5063487;28;20509;-75
2021/06/24 01:08:16;;;;;;;30.80;11.27;;;;;;;20.19;87.49;95362.34;5064873;28;20045;-75
2021/06/24 01:10:47;;;;;;;31.60;9.90;;;;;;;20.20;87.37;95369.22;5063399;28;20050;-75
2021/06/24 01:13:15;;;;;;;30.90;9.75;;;;;;;20.06;87.12;95349.78;5063643;28;20422;-76
2021/06/24 01:15:42;;;;;;;26.20;9.25;;;;;;;20.14;87.48;95369.53;5064753;28;20468;-75
2021/06/24 01:18:09;;;;;;;31.25;9.70;;;;;;;20.02;87.32;95370.72;5063392;28;20063;-75
2021/06/24 01:20:39;;;;;;;38.97;9.55;;;;;;;19.92;86.99;95378.72;5065291;28;20494;-75
2021/06/24 01:23:12;;;;;;;38.85;11.38;;;;;;;19.80;87.77;95375.63;5062731;28;20040;-75
2021/06/24 01:25:39;;;;;;;46.67;10.32;;;;;;;19.86;87.64;95379.81;5062764;28;20454;-75
2021/06/24 01:28:11;;;;;;;30.30;10.18;;;;;;;19.85;87.85;95378.25;5064932;28;20060;-75
2021/06/24 01:30:41;;;;;;;30.80;9.93;;;;;;;19.84;88.44;95377.47;5064061;28;20041;-75
2021/06/24 01:33:11;;;;;;;43.55;11.63;;;;;;;19.85;88.26;95378.25;5066245;28;20047;-76
2021/06/24 01:35:38;;;;;;;32.90;10.00;;;;;;;19.87;88.32;95370.81;5068876;28;20040;-76
2021/06/24 01:38:09;;;;;;;40.95;11.13;;;;;;;19.86;88.69;95369.22;5065978;28;20582;-76
2021/06/24 01:40:43;;;;;;;36.60;10.43;;;;;;;19.71;89.89;95362.19;5065709;28;20072;-76
2021/06/24 01:43:10;;;;;;;29.10;9.57;;;;;;;19.76;89.60;95371.97;5100184;28;20047;-76
2021/06/24 01:45:51;;;;;;;35.08;9.43;;;;;;;19.74;89.13;95371.47;5068757;28;20090;-77
2021/06/24 01:48:19;;;;;;;27.52;9.88;;;;;;;19.63;88.99;95366.19;5067808;28;20040;-76
2021/06/24 01:50:46;;;;;;;39.42;9.93;;;;;;;19.61;89.16;95370.97;5067981;28;20040;-76
2021/06/24 01:53:14;;;;;;;32.80;10.90;;;;;;;19.59;88.89;95378.41;5068436;28;20086;-76
2021/06/24 01:55:42;;;;;;;37.78;10.65;;;;;;;19.48;89.15;95368.94;5065379;28;20076;-75
2021/06/24 01:58:22;;;;;;;34.25;11.80;;;;;;;19.43;90.21;95369.78;5067639;28;20032;-77
2021/06/24 02:01:07;;;;;;;36.00;10.65;;;;;;;19.44;90.64;95362.63;5068645;28;20527;-76
2021/06/24 02:03:40;;;;;;;43.10;11.83;;;;;;;19.46;91.25;95365.78;5066616;28;20132;-76
2021/06/24 02:06:09;;;;;;;34.50;10.65;;;;;;;19.53;90.85;95366.25;5067095;28;20486;-76
2021/06/24 02:08:38;;;;;;;38.92;11.13;;;;;;;19.49;90.45;95349.38;5066092;28;20539;-76
2021/06/24 02:11:14;;;;;;;35.53;12.50;;;;;;;19.58;89.64;95358.31;5067491;28;20870;-76
2021/06/24 02:13:44;;;;;;;39.20;12.73;;;;;;;19.59;90.00;95354.63;5066531;28;20524;-76
2021/06/24 02:16:11;;;;;;;39.45;9.70;;;;;;;19.53;90.49;95360.97;5066415;28;20056;-76
2021/06/24 02:18:39;;;;;;;31.13;10.50;;;;;;;19.36;90.49;95365.88;5066947;28;20064;-76
2021/06/24 02:21:11;;;;;;;31.48;9.38;;;;;;;19.29;90.18;95366.94;5066512;28;20048;-76
2021/06/24 02:23:46;;;;;;;32.53;11.00;;;;;;;19.29;89.53;95368.78;5064750;28;20036;-76
2021/06/24 02:26:24;;;;;;;30.33;10.35;;;;;;;19.21;89.68;95370.16;5065177;28;20433;-76
2021/06/24 02:29:02;;;;;;;34.80;10.48;;;;;;;19.18;89.13;95370.69;5065792;28;20044;-76
2021/06/24 02:31:30;;;;;;;31.95;10.32;;;;;;;19.18;89.14;95375.19;5065797;28;20044;-76
2021/06/24 02:34:05;;;;;;;40.10;11.20;;;;;;;19.15;89.50;95371.22;5066008;28;20083;-76
2021/06/24 02:36:44;;;;;;;46.17;11.35;;;;;;;19.03;90.72;95363.66;5066043;28;20064;-76
2021/06/24 02:39:12;;;;;;;46.88;12.00;;;;;;;19.03;91.09;95362.84;5066100;28;20517;-76
2021/06/24 02:41:42;;;;;;;35.13;10.95;;;;;;;19.04;90.86;95364.44;5065488;28;20048;-76
2021/06/24 02:44:09;;;;;;;34.63;10.32;;;;;;;18.99;90.80;95356.53;5064804;28;20082;-76
2021/06/24 02:46:36;;;;;;;40.40;11.25;;;;;;;19.03;90.76;95366.28;5065880;28;20068;-76
2021/06/24 02:49:03;;;;;;;39.92;11.80;;;;;;;19.01;90.56;95354.41;5067226;28;20070;-76
2021/06/24 02:51:48;;;;;;;41.00;10.43;;;;;;;18.96;90.06;95362.34;5065081;28;20059;-76
2021/06/24 02:54:17;;;;;;;41.28;11.65;;;;;;;18.87;90.38;95348.91;5065920;28;20052;-77
2021/06/24 02:56:48;;;;;;;44.33;11.23;;;;;;;18.77;90.27;95347.09;5066118;28;20068;-77
2021/06/24 02:59:36;;;;;;;40.42;12.77;;;;;;;18.78;91.34;95346.03;5055948;28;20125;-76
2021/06/24 03:02:03;;;;;;;34.45;10.55;;;;;;;18.78;91.91;95335.50;5067348;28;20037;-77
2021/06/24 03:04:34;;;;;;;44.60;11.75;;;;;;;18.75;91.95;95341.28;5066179;28;20123;-77
2021/06/24 03:07:01;;;;;;;35.75;12.18;;;;;;;18.72;92.27;95352.38;5066715;28;20052;-76
2021/06/24 03:09:34;;;;;;;33.30;12.97;;;;;;;18.63;92.50;95354.00;5067275;28;21864;-77
2021/06/24 03:12:02;;;;;;;36.30;10.10;;;;;;;18.64;92.49;95350.31;5066520;28;20473;-76
2021/06/24 03:14:31;;;;;;;40.25;12.82;;;;;;;18.65;93.44;95362.44;5065842;28;20041;-77
2021/06/24 03:16:57;;;;;;;31.00;11.57;;;;;;;18.51;93.73;95357.72;5065260;28;20072;-77
2021/06/24 03:19:25;;;;;;;31.77;12.43;;;;;;;18.52;93.59;95375.13;5065716;28;20045;-77
2021/06/24 03:22:04;;;;;;;36.75;13.02;;;;;;;18.32;94.09;95359.34;5066397;28;20032;-77
2021/06/24 03:24:40;;;;;;;38.15;13.80;;;;;;;18.38;95.14;95366.19;5065056;28;20045;-76
2021/06/24 03:27:08;;;;;;;42.72;14.75;;;;;;;18.40;95.61;95366.72;5066681;28;20037;-76
2021/06/24 03:29:48;;;;;;;43.80;13.85;;;;;;;18.49;95.39;95370.41;5063946;28;20047;-75
2021/06/24 03:32:15;;;;;;;44.58;14.40;;;;;;;18.61;95.11;95382.50;5066151;28;20060;-75
2021/06/24 03:34:43;;;;;;;40.53;15.60;;;;;;;18.68;95.42;95383.00;5065095;28;20044;-76
2021/06/24 03:37:10;;;;;;;39.50;13.00;;;;;;;18.76;94.95;95379.78;5066355;28;20042;-77
2021/06/24 03:39:48;;;;;;;52.13;14.15;;;;;;;18.83;94.92;95385.59;5064576;28;20495;-76
2021/06/24 03:42:16;;;;;;;38.53;14.00;;;;;;;18.86;95.58;95390.34;5063475;28;20098;-77
2021/06/24 03:44:43;;;;;;;48.53;14.18;;;;;;;18.94;95.72;95380.31;5064909;28;20045;-76
2021/06/24 03:47:10;;;;;;;42.05;14.15;;;;;;;19.06;95.27;95372.88;5066214;28;20068;-76
2021/06/24 03:49:39;;;;;;;34.97;13.18;;;;;;;19.13;94.59;95368.06;5064917;28;20059;-75
2021/06/24 03:52:06;;;;;;;36.30;13.20;;;;;;;19.01;96.95;95364.97;5066261;28;20040;-76
2021/06/24 03:54:33;;;;;;;34.67;14.48;;;;;;;18.85;98.29;95362.41;5063906;28;20036;-76
2021/06/24 03:57:02;;;;;;;46.40;14.82;;;;;;;18.78;98.46;95367.16;5064785;28;20054;-76
2021/06/24 03:59:37;;;;;;;37.40;16.20;;;;;;;18.59;98.64;95363.50;5064978;28;20086;-76
2021/06/24 04:02:04;;;;;;;45.67;14.55;;;;;;;18.60;99.26;95373.00;5065998;28;20044;-77
2021/06/24 04:04:31;;;;;;;38.35;15.07;;;;;;;18.49;100.00;95349.28;5063978;28;20101;-76
2021/06/24 04:06:59;;;;;;;40.67;14.75;;;;;;;18.64;99.41;95374.06;5065361;28;20048;-76
2021/06/24 04:09:25;;;;;;;45.10;14.18;;;;;;;18.61;98.49;95369.31;5065788;28;20571;-76
2021/06/24 04:11:53;;;;;;;42.50;15.95;;;;;;;18.67;99.13;95370.84;5063937;28;20433;-76
2021/06/24 04:14:39;;;;;;;43.40;16.00;;;;;;;18.78;98.48;95366.34;5065381;28;20045;-76
2021/06/24 04:17:23;;;;;;;55.83;19.10;;;;;;;18.60;97.15;95365.06;5064036;28;20107;-76
2021/06/24 04:19:53;;;;;;;33.58;16.35;;;;;;;18.69;96.84;95374.00;5063808;28;20542;-76
2021/06/24 04:22:21;;;;;;;39.95;14.50;;;;;;;18.65;97.00;95365.84;5065615;28;20072;-76
2021/06/24 04:25:13;;;;;;;36.53;15.65;;;;;;;18.70;98.29;95370.31;5058602;28;20075;-76
2021/06/24 04:27:46;;;;;;;38.40;16.15;;;;;;;18.82;97.73;95362.94;5064113;28;20051;-76
2021/06/24 04:30:15;;;;;;;44.58;15.13;;;;;;;18.91;97.75;95377.16;5064243;28;20041;-76
2021/06/24 04:32:45;;;;;;;39.17;14.77;;;;;;;18.94;97.32;95380.31;5065363;28;20472;-77
2021/06/24 04:35:15;;;;;;;35.85;15.10;;;;;;;19.12;97.04;95382.31;5064189;28;21641;-77
2021/06/24 04:37:43;;;;;;;38.20;15.38;;;;;;;19.16;98.02;95398.41;5065141;28;20048;-76
2021/06/24 04:40:12;;;;;;;40.38;16.60;;;;;;;19.15;98.77;95402.91;5065450;28;20049;-76
2021/06/24 04:42:46;;;;;;;37.30;14.57;;;;;;;19.18;99.17;95391.81;5063978;28;20127;-77
2021/06/24 04:45:17;;;;;;;52.35;17.58;;;;;;;19.34;98.95;95394.38;5063641;28;20121;-76
2021/06/24 04:47:59;;;;;;;39.60;15.95;;;;;;;19.48;97.46;95372.38;5063915;28;20056;-77
2021/06/24 04:50:28;;;;;;;46.28;17.35;;;;;;;19.59;96.85;95370.47;5062258;28;20163;-76
2021/06/24 04:52:56;;;;;;;50.13;15.15;;;;;;;19.77;96.06;95381.47;5063617;28;20058;-78
2021/06/24 04:55:38;;;;;;;48.55;17.50;;;;;;;19.93;95.37;95369.69;5063304;28;20044;-76
2021/06/24 04:58:14;;;;;;;45.58;15.27;;;;;;;20.01;95.12;95371.75;5048150;28;20127;-76
2021/06/24 05:00:59;;;;;;;41.40;14.98;;;;;;;20.00;95.29;95364.88;5064695;28;20059;-76
2021/06/24 05:03:53;;;;;;;47.55;17.33;;;;;;;20.17;95.95;95369.00;5063478;28;20473;-77
2021/06/24 05:06:20;;;;;;;45.85;16.95;;;;;;;20.24;95.48;95358.88;5066579;28;20158;-77
2021/06/24 05:08:47;;;;;;;50.78;17.52;;;;;;;20.42;94.71;95360.81;5068804;28;20577;-77
2021/06/24 05:11:15;;;;;;;58.50;19.15;;;;;;;20.49;93.60;95349.09;5068603;28;20761;-73
2021/06/24 05:13:42;;;;;;;44.92;16.83;;;;;;;20.68;92.71;95363.22;5068566;28;20111;-77
2021/06/24 05:16:09;;;;;;;40.63;16.73;;;;;;;20.79;91.51;95363.88;5069116;28;20036;-77
2021/06/24 05:18:37;;;;;;;48.78;16.13;;;;;;;20.95;90.98;95367.16;5068838;28;20044;-75
2021/06/24 05:21:04;;;;;;;51.40;17.02;;;;;;;21.04;90.42;95376.03;5067742;28;21934;-74
2021/06/24 05:23:31;;;;;;;42.70;17.10;;;;;;;21.12;90.01;95367.47;5069392;28;20039;-75
2021/06/24 05:25:58;;;;;;;50.72;16.35;;;;;;;21.24;89.35;95364.41;5068754;28;20040;-73
2021/06/24 05:28:25;;;;;;;48.65;15.73;;;;;;;21.35;89.11;95359.75;5068557;28;20045;-75
2021/06/24 05:30:51;;;;;;;44.00;14.55;;;;;;;21.46;87.47;95358.56;5050571;28;20132;-75
2021/06/24 05:33:18;;;;;;;50.10;15.90;;;;;;;21.56;86.12;95362.94;5067491;28;20045;-74
2021/06/24 05:35:47;;;;;;;47.25;14.25;;;;;;;21.66;85.00;95362.00;5049361;28;20491;-75
2021/06/24 05:38:17;;;;;;;43.20;15.90;;;;;;;21.76;84.57;95369.78;5067556;28;20039;-75
2021/06/24 05:40:47;;;;;;;42.92;14.77;;;;;;;21.86;85.11;95374.94;5066611;28;20063;-75
2021/06/24 05:43:15;;;;;;;68.97;17.92;;;;;;;22.02;84.66;95382.66;5065098;28;20044;-75
2021/06/24 05:45:42;;;;;;;46.63;13.32;;;;;;;22.17;84.09;95390.38;5065119;28;20135;-73
2021/06/24 05:48:09;;;;;;;46.35;14.82;;;;;;;22.30;85.40;95384.31;5068438;28;20580;-75
2021/06/24 05:50:36;;;;;;;47.15;14.35;;;;;;;22.33;85.57;95389.06;5068409;28;20041;-74
2021/06/24 05:53:03;;;;;;;41.78;14.10;;;;;;;22.38;84.87;95368.81;5067944;28;20028;-74
2021/06/24 05:55:51;;;;;;;39.22;14.50;;;;;;;22.50;83.51;95377.09;5068472;28;20033;-74
2021/06/24 05:58:30;;;;;;;38.47;15.07;;;;;;;22.64;82.41;95383.19;5068237;28;20044;-74
2021/06/24 06:00:58;;;;;;;49.90;17.52;;;;;;;22.68;81.81;95373.56;5067564;28;20425;-74
2021/06/24 06:03:26;;;;;;;43.67;14.02;;;;;;;22.76;82.04;95363.34;5067736;28;20040;-74
2021/06/24 06:05:54;;;;;;;35.28;13.30;;;;;;;22.91;82.73;95361.16;5067008;28;20393;-75
2021/06/24 06:08:22;;;;;;;42.53;14.25;;;;;;;23.03;81.67;95373.97;5067786;28;20044;-74
2021/06/24 06:10:49;;;;;;;46.20;17.05;;;;;;;23.11;80.55;95369.84;5067726;28;20048;-74
2021/06/24 06:13:16;;;;;;;41.50;13.75;;;;;;;23.18;81.55;95361.47;5066763;28;20052;-74
2021/06/24 06:15:48;;;;;;;42.50;12.80;;;;;;;23.34;79.42;95365.38;5067957;28;20037;-75
2021/06/24 06:18:24;;;;;;;41.97;13.40;;;;;;;23.40;78.25;95366.84;5066728;28;20036;-74
2021/06/24 06:20:52;;;;;;;38.33;11.50;;;;;;;23.51;78.70;95371.94;5067338;28;20040;-74
2021/06/24 06:23:21;;;;;;;42.95;12.32;;;;;;;23.63;76.89;95380.94;5067303;28;20044;-74
2021/06/24 06:25:49;;;;;;;38.53;13.77;;;;;;;23.59;77.86;95373.91;5066263;28;20497;-74
2021/06/24 06:28:18;;;;;;;36.45;13.13;;;;;;;23.72;77.11;95383.69;5067615;28;20045;-74
2021/06/24 06:30:50;;;;;;;46.25;13.05;;;;;;;23.79;76.54;95370.75;5067228;28;20120;-74
2021/06/24 06:33:18;;;;;;;42.50;13.30;;;;;;;23.89;75.58;95376.94;5067370;28;20048;-74
2021/06/24 06:35:46;;;;;;;53.30;12.48;;;;;;;24.03;75.96;95380.34;5067458;28;20036;-74
2021/06/24 06:38:13;;;;;;;35.83;13.43;;;;;;;24.00;75.38;95378.28;5067481;28;20434;-74
2021/06/24 06:40:40;;;;;;;45.15;13.30;;;;;;;24.15;75.50;95385.91;5067275;28;20060;-74
2021/06/24 06:43:08;;;;;;;38.83;12.60;;;;;;;24.36;75.54;95377.41;5066016;28;20040;-73
2021/06/24 06:45:35;;;;;;;51.35;13.07;;;;;;;24.44;74.15;95376.66;5067479;28;20045;-74
2021/06/24 06:48:03;;;;;;;38.35;12.70;;;;;;;24.53;74.68;95380.19;5066691;28;20045;-74
2021/06/24 06:50:31;;;;;;;49.03;11.88;;;;;;;24.58;73.66;95371.28;5065303;28;20041;-74
2021/06/24 06:52:58;;;;;;;38.45;12.35;;;;;;;24.60;76.14;95366.44;5066600;28;20541;-74
2021/06/24 06:55:28;;;;;;;45.20;13.38;;;;;;;24.68;74.33;95370.22;5067422;28;20063;-76
2021/06/24 06:57:57;;;;;;;44.17;13.07;;;;;;;24.79;74.67;95374.16;5066216;28;20135;-75
2021/06/24 07:00:25;;;;;;;38.15;12.45;;;;;;;24.99;73.96;95381.63;5067287;28;20514;-76
2021/06/24 07:02:52;;;;;;;39.90;12.48;;;;;;;25.11;75.14;95374.91;5066852;28;20079;-76
2021/06/24 07:05:19;;;;;;;34.33;11.95;;;;;;;25.32;70.87;95377.78;5065879;28;20043;-74
2021/06/24 07:07:46;;;;;;;42.70;14.07;;;;;;;25.46;70.78;95374.97;5066580;28;20334;-75
2021/06/24 07:10:14;;;;;;;32.65;12.68;;;;;;;25.64;72.32;95373.91;5066937;28;20441;-74
2021/06/24 07:12:41;;;;;;;38.00;12.23;;;;;;;25.83;72.80;95378.91;5066408;28;20050;-75
2021/06/24 07:15:09;;;;;;;32.40;10.65;;;;;;;26.05;69.37;95377.19;5065476;28;20477;-75
2021/06/24 07:17:36;;;;;;;36.67;10.27;;;;;;;26.17;67.55;95373.88;5065251;28;20111;-74
2021/06/24 07:20:06;;;;;;;47.15;11.02;;;;;;;26.31;66.79;95369.16;5064051;28;20056;-74
2021/06/24 07:22:33;;;;;;;43.08;11.35;;;;;;;26.47;65.82;95372.88;5065528;28;20524;-74
2021/06/24 07:25:00;;;;;;;42.05;10.40;;;;;;;26.49;65.90;95370.66;5064898;28;20083;-78
2021/06/24 07:27:27;;;;;;;40.75;10.65;;;;;;;26.52;69.04;95364.69;5067166;28;20074;-79
2021/06/24 07:29:54;;;;;;;32.50;10.40;;;;;;;26.66;68.92;95375.16;5065386;28;20056;-79
2021/06/24 07:32:21;;;;;;;35.97;11.32;;;;;;;26.83;64.90;95377.00;5066217;28;20048;-78
2021/06/24 07:34:48;;;;;;;35.90;9.85;;;;;;;26.91;64.83;95366.59;5067149;28;20502;-78
2021/06/24 07:37:15;;;;;;;37.05;11.70;;;;;;;27.10;63.85;95372.31;5065368;28;20051;-78
2021/06/24 07:39:42;;;;;;;35.83;10.18;;;;;;;27.32;63.44;95383.84;5064060;28;20489;-78
2021/06/24 07:42:12;;;;;;;37.53;10.65;;;;;;;27.45;67.59;95382.81;5065314;28;20700;-79
2021/06/24 07:44:38;;;;;;;35.83;11.95;;;;;;;27.31;68.25;95371.56;5066072;28;20041;-77
2021/06/24 07:47:05;;;;;;;48.38;11.32;;;;;;;27.37;66.52;95378.28;5066439;28;20416;-78
2021/06/24 07:49:32;;;;;;;49.60;11.90;;;;;;;27.67;67.98;95378.25;5066715;28;20036;-79
2021/06/24 07:51:59;;;;;;;43.97;11.02;;;;;;;27.86;63.54;95375.88;5066455;28;20044;-78
2021/06/24 07:54:26;;;;;;;36.70;10.98;;;;;;;27.87;63.53;95372.09;5066423;28;20033;-78
2021/06/24 07:56:55;;;;;;;42.13;10.18;;;;;;;28.03;64.24;95375.75;5064321;28;20066;-77
2021/06/24 07:59:22;;;;;;;43.97;11.57;;;;;;;28.28;66.81;95365.13;5066551;28;20091;-77
2021/06/24 08:01:49;;;;;;;43.88;13.52;;;;;;;28.47;64.74;95355.75;5065425;28;20036;-78
2021/06/24 08:04:16;;;;;;;40.08;11.20;;;;;;;28.71;65.03;95371.91;5066083;28;20551;-78
2021/06/24 08:06:43;;;;;;;45.15;10.75;;;;;;;28.91;63.37;95369.47;5066089;28;20057;-77
2021/06/24 08:09:13;;;;;;;36.60;11.73;;;;;;;29.03;64.24;95364.09;5065859;28;20060;-78
2021/06/24 08:11:41;;;;;;;38.80;10.90;;;;;;;29.32;63.25;95373.81;5065880;28;20068;-77
2021/06/24 08:14:07;;;;;;;36.58;10.35;;;;;;;29.40;61.86;95366.75;5066252;28;20480;-78
2021/06/24 08:16:35;;;;;;;40.55;9.70;;;;;;;29.66;57.85;95368.28;5066122;28;20040;-77
2021/06/24 08:19:03;;;;;;;39.35;9.48;;;;;;;29.93;57.27;95367.53;5065863;28;20502;-79
2021/06/24 08:21:31;;;;;;;37.67;9.32;;;;;;;30.09;54.84;95356.03;5066394;28;20120;-79
2021/06/24 08:23:58;;;;;;;39.80;9.00;;;;;;;30.35;53.02;95362.88;5066167;28;20124;-78
2021/06/24 08:26:29;;;;;;;37.28;9.55;;;;;;;30.44;53.61;95366.16;5065754;28;20044;-79
2021/06/24 08:28:56;;;;;;;43.22;10.45;;;;;;;30.57;52.87;95364.94;5065907;28;20037;-80
2021/06/24 08:31:23;;;;;;;33.50;8.43;;;;;;;30.68;51.02;95367.91;5066029;28;20044;-79
2021/06/24 08:33:50;;;;;;;50.42;8.75;;;;;;;30.74;50.20;95358.47;5064528;28;20079;-79
2021/06/24 08:36:19;;;;;;;46.33;8.45;;;;;;;30.71;49.41;95369.13;5066231;28;20047;-79
2021/06/24 08:38:46;;;;;;;41.83;8.95;;;;;;;30.80;50.32;95373.19;5064455;28;20044;-78
2021/06/24 08:41:15;;;;;;;32.88;8.23;;;;;;;31.01;48.79;95383.72;5064444;28;20037;-78
2021/06/24 08:43:42;;;;;;;36.28;8.57;;;;;;;31.15;44.78;95387.84;5065374;28;20414;-77
2021/06/24 08:46:10;;;;;;;49.40;7.45;;;;;;;31.26;43.88;95378.13;5064784;28;20050;-80
2021/06/24 08:48:40;;;;;;;47.25;8.95;;;;;;;31.42;43.93;95372.69;5066151;28;20044;-78
2021/06/24 08:51:07;;;;;;;28.63;6.32;;;;;;;31.72;41.92;95389.09;5063696;28;20067;-78
2021/06/24 08:53:35;;;;;;;32.75;5.60;;;;;;;31.92;40.94;95381.03;5064470;28;20037;-78
2021/06/24 08:56:02;;;;;;;41.88;6.45;;;;;;;32.07;40.50;95372.13;5065690;28;20611;-78
2021/06/24 08:58:29;;;;;;;33.88;6.30;;;;;;;32.19;39.50;95385.44;5060409;28;20068;-77
2021/06/24 09:00:56;;;;;;;30.50;6.35;;;;;;;32.31;36.70;95381.81;5062927;28;20091;-78
2021/06/24 09:03:29;;;;;;;30.25;5.13;;;;;;;32.39;35.59;95382.69;5064133;28;20033;-77
2021/06/24 09:06:05;;;;;;;30.67;6.13;;;;;;;32.43;34.66;95383.56;5062884;28;20049;-77
2021/06/24 09:08:39;;;;;;;22.08;4.93;;;;;;;32.54;33.48;95376.44;5060015;28;20139;-75
2021/06/24 09:11:19;;;;;;;28.13;5.28;;;;;;;32.69;36.84;95365.91;5061626;28;20044;-76
2021/06/24 09:14:10;;;;;;;24.40;5.47;;;;;;;33.06;36.45;95370.72;5062740;28;20075;-76
2021/06/24 09:16:41;;;;;;;20.85;6.00;;;;;;;33.30;37.66;95370.31;5062447;28;20055;-76
2021/06/24 09:19:24;;;;;;;33.80;5.20;;;;;;;33.61;36.92;95368.41;5063789;28;20039;-76
2021/06/24 09:22:02;;;;;;;26.98;5.05;;;;;;;33.98;32.99;95375.03;5060645;28;20056;-76
2021/06/24 09:24:34;;;;;;;28.45;4.57;;;;;;;34.15;33.50;95374.47;5061912;28;20578;-76
2021/06/24 09:27:24;;;;;;;34.20;5.18;;;;;;;34.35;35.33;95371.59;5063445;28;20430;-76
2021/06/24 09:29:59;;;;;;;23.75;5.13;;;;;;;34.65;33.33;95374.22;5061745;28;20050;-78
2021/06/24 09:32:36;;;;;;;25.65;5.28;;;;;;;34.90;33.12;95370.94;5063512;28;20416;-78
2021/06/24 09:35:05;;;;;;;22.88;4.82;;;;;;;34.89;30.90;95372.09;5058065;28;20032;-76
2021/06/24 09:38:02;;;;;;;30.67;5.50;;;;;;;35.08;32.77;95374.56;5063836;28;20044;-78
2021/06/24 09:40:38;;;;;;;32.75;5.85;;;;;;;35.27;30.78;95365.41;5062359;28;20372;-79
2021/06/24 09:43:05;;;;;;;26.25;5.43;;;;;;;35.23;31.15;95368.09;5062581;28;20115;-78
2021/06/24 09:45:32;;;;;;;27.85;6.22;;;;;;;35.39;30.26;95361.63;5061145;28;20649;-78
2021/06/24 09:48:10;;;;;;;24.55;5.25;;;;;;;35.25;30.81;95353.44;5063153;28;20052;-79
2021/06/24 09:50:40;;;;;;;25.85;6.32;;;;;;;34.89;30.90;95355.88;5061462;28;20522;-78
2021/06/24 09:53:07;;;;;;;26.42;5.07;;;;;;;34.79;31.01;95352.72;5065046;28;20049;-79
2021/06/24 09:55:35;;;;;;;23.23;4.72;;;;;;;34.95;30.34;95344.31;5066443;28;20056;-77
2021/06/24 09:58:16;;;;;;;29.73;4.97;;;;;;;35.29;31.27;95351.50;5065742;28;20051;-78
2021/06/24 10:00:51;;;;;;;28.05;5.57;;;;;;;35.43;31.15;95357.00;5066097;28;20437;-79
2021/06/24 10:03:20;;;;;;;23.85;5.63;;;;;;;35.01;31.80;95358.28;5066825;28;20094;-78
2021/06/24 10:05:48;;;;;;;28.27;4.85;;;;;;;34.81;32.39;95355.03;5066102;28;20135;-78
2021/06/24 10:08:15;;;;;;;31.38;6.18;;;;;;;34.67;31.27;95347.56;5065907;28;20058;-77
2021/06/24 10:10:44;;;;;;;28.60;5.43;;;;;;;35.17;30.91;95350.66;5065280;28;20151;-78
2021/06/24 10:13:11;;;;;;;23.67;4.97;;;;;;;35.54;29.11;95344.28;5067276;28;20036;-79
2021/06/24 10:15:40;;;;;;;20.98;3.90;;;;;;;35.84;29.71;95351.41;5066317;28;20064;-76
2021/06/24 10:18:07;;;;;;;21.95;5.72;;;;;;;35.93;30.48;95351.81;5065848;28;20052;-75
2021/06/24 10:20:34;;;;;;;28.52;4.72;;;;;;;36.22;30.50;95346.50;5064180;28;20061;-73
2021/06/24 10:23:07;;;;;;;22.73;4.50;;;;;;;36.44;28.60;95335.69;5065459;28;20052;-76
2021/06/24 10:25:35;;;;;;;35.07;4.87;;;;;;;35.66;29.19;95318.03;5060714;28;20126;-77
2021/06/24 10:28:03;;;;;;;20.65;4.70;;;;;;;35.88;29.66;95333.22;5064737;28;20872;-76
2021/06/24 10:30:38;;;;;;;23.00;5.10;;;;;;;35.41;31.13;95326.81;5065075;28;20048;-76
2021/06/24 10:33:11;;;;;;;37.47;6.90;;;;;;;35.51;30.48;95331.53;5064609;28;20057;-76
2021/06/24 10:35:49;;;;;;;22.45;4.85;;;;;;;35.91;30.13;95324.31;5060964;28;20094;-76
2021/06/24 10:38:17;;;;;;;21.67;5.22;;;;;;;36.21;30.39;95325.94;5064802;28;20040;-76
2021/06/24 10:40:57;;;;;;;17.75;4.72;;;;;;;36.29;31.84;95316.69;5062783;28;20080;-76
2021/06/24 10:43:42;;;;;;;24.98;5.78;;;;;;;36.66;29.85;95326.38;5064394;28;20043;-76
2021/06/24 10:46:14;;;;;;;33.65;5.75;;;;;;;37.02;29.02;95320.16;5065148;28;20063;-77
2021/06/24 10:48:41;;;;;;;30.40;5.77;;;;;;;36.97;29.30;95307.78;5065187;28;20041;-76
2021/06/24 10:51:10;;;;;;;27.23;5.57;;;;;;;37.21;27.53;95332.56;5064795;28;20565;-76
2021/06/24 10:53:47;;;;;;;23.13;5.28;;;;;;;37.40;27.48;95328.63;5065659;28;20051;-76
2021/06/24 10:56:20;;;;;;;23.00;5.30;;;;;;;37.54;28.08;95323.13;5064681;28;20059;-76
2021/06/24 10:58:47;;;;;;;24.63;5.95;;;;;;;37.62;28.58;95326.63;5064208;28;20751;-76
2021/06/24 11:01:14;;;;;;;36.17;5.22;;;;;;;37.85;28.48;95317.97;5064578;28;20441;-75
2021/06/24 11:03:43;;;;;;;26.02;4.43;;;;;;;38.15;29.89;95317.44;5063869;28;20101;-76
2021/06/24 11:06:15;;;;;;;22.92;4.32;;;;;;;38.24;27.21;95320.50;5064318;28;20056;-76
2021/06/24 11:08:44;;;;;;;27.77;6.13;;;;;;;38.37;25.73;95320.78;5064029;28;20116;-76
2021/06/24 11:11:18;;;;;;;26.77;4.43;;;;;;;38.60;26.78;95314.81;5065164;28;20058;-75
2021/06/24 11:13:50;;;;;;;23.35;4.80;;;;;;;38.89;24.86;95314.56;5064558;28;20541;-76
2021/06/24 11:16:20;;;;;;;21.33;4.60;;;;;;;38.92;24.72;95321.94;5064781;28;20044;-76
2021/06/24 11:18:53;;;;;;;23.30;4.55;;;;;;;38.50;24.94;95310.22;5064274;28;20044;-77
2021/06/24 11:21:29;;;;;;;24.05;5.45;;;;;;;38.52;25.49;95313.31;5059914;28;20032;-76
2021/06/24 11:24:14;;;;;;;37.25;5.68;;;;;;;38.95;24.54;95318.41;5065528;28;20044;-75
2021/06/24 11:26:44;;;;;;;20.85;5.10;;;;;;;38.72;24.11;95305.41;5066599;28;20051;-76
2021/06/24 11:29:58;;;;;;;22.33;5.00;;;;;;;38.07;25.53;95315.94;5065253;28;20044;-76
2021/06/24 11:37:20;;;;;;;26.23;4.60;;;;;;;38.29;25.07;95310.38;5067103;28;20040;-75
2021/06/24 11:39:53;;;;;;;28.83;4.82;;;;;;;38.92;24.46;95302.88;5066555;28;20041;-75